• Join FlightAware (Why Join?)
  • Login
  • US Flag 
11:24AM EDT


 

Airport Tracker/Info


-or-


 

Live Flight TrackerFlight Track Log ✈ N664HW ✈ 13-Jun-2013 ✈ KAOV - KALN

Flight Track Log - Related Links

Times and Time Zones

All times are in EDT time to prevent confusion due to time zone crossing. See the N664HW flight status page for this flight to view local times or setup timezone preferences in your user account.

Time Position Orientation Groundspeed Altitude Reporting Facility
EDT Latitude Longitude Course Direction KTS MPH feet Rate Location/Type
05:32PM 36.9764 -92.6575 30° Northeast 96 110 3,800  Level Kansas City Center
05:33PM 37.0031 -92.6381 30° Northeast 104 120 4,600 600 Climbing Kansas City Center
05:34PM 37.0247 -92.6139 42° Northeast 104 120 5,100 480 Climbing Kansas City Center
05:35PM 37.0458 -92.5836 49° Northeast 108 124 5,600 540 Climbing Kansas City Center
05:36PM 37.0725 -92.5433 48° Northeast 116 133 6,300 540 Climbing Kansas City Center
05:37PM 37.0961 -92.5094 49° Northeast 122 140 6,700 360 Climbing Kansas City Center
05:38PM 37.1225 -92.4789 43° Northeast 126 145 7,100 420 Climbing Kansas City Center
05:39PM 37.1469 -92.4433 49° Northeast 130 150 7,600 420 Climbing Kansas City Center
05:40PM 37.1708 -92.4069 51° Northeast 133 153 8,000 420 Climbing Kansas City Center
05:41PM 37.1992 -92.3814 36° Northeast 131 151 8,500 480 Climbing Kansas City Center
05:42PM 37.2247 -92.3439 49° Northeast 122 140 9,000 240 Climbing Kansas City Center
05:43PM 37.2453 -92.3058 56° Northeast 124 143 9,100  Climbing Kansas City Center
05:44PM 37.2703 -92.2722 47° Northeast 128 147 9,100  Level Kansas City Center
05:45PM 37.2994 -92.2453 36° Northeast 130 150 9,100  Level Kansas City Center
05:46PM 37.3272 -92.2164 40° Northeast 130 150 9,100  Level Kansas City Center
05:47PM 37.3461 -92.1756 60° Northeast 132 152 9,100  Level Kansas City Center
05:48PM 37.3731 -92.1289 54° Northeast 135 155 9,100  Level Kansas City Center
05:49PM 37.4003 -92.0969 43° Northeast 136 157 9,100  Level Kansas City Center
05:50PM 37.4256 -92.0642 46° Northeast 132 152 9,100 180 Level Kansas City Center
05:51PM 37.4472 -92.0308 51° Northeast 126 145 9,500 300 Climbing Kansas City Center
05:52PM 37.4669 -92.0017 50° Northeast 115 132 9,800 240 Climbing Kansas City Center
05:53PM 37.4853 -91.9700 54° Northeast 112 129 10,100 240 Climbing Kansas City Center
05:54PM 37.5028 -91.9408 53° Northeast 107 123 10,400 300 Climbing Kansas City Center
05:55PM 37.5261 -91.9067 49° Northeast 107 123 10,800 300 Climbing Kansas City Center
05:56PM 37.5444 -91.8792 50° Northeast 105 121 11,100 180 Climbing Kansas City Center
05:57PM 37.5642 -91.8497 46° Northeast 107 123 11,200  Climbing Kansas City Center
05:58PM 37.5756 -91.8380 46° Northeast  Level FlightAware Approximate
05:58PM 37.5869 -91.8178 48° Northeast 118 136 11,100  Level Kansas City Center
05:59PM 37.6133 -91.7864 43° Northeast 126 145 11,100  Level Kansas City Center
06:00PM 37.6400 -91.7581 40° Northeast 126 145 11,200  Climbing Kansas City Center
06:02PM 37.6733 -91.7269 36° Northeast 125 144 11,100 -60 Descending Kansas City Center
06:03PM 37.6989 -91.6933 46° Northeast 131 151 11,100  Level Kansas City Center
06:04PM 37.7247 -91.6628 43° Northeast 129 148 11,100  Level Kansas City Center
06:05PM 37.7494 -91.6283 48° Northeast 131 151 11,100  Level Kansas City Center
06:06PM 37.7733 -91.5953 48° Northeast 129 148 11,200  Climbing Kansas City Center
06:07PM 37.7978 -91.5625 47° Northeast 128 147 11,100 -60 Descending Kansas City Center
06:08PM 37.8281 -91.5219 47° Northeast 130 150 11,100  Level Kansas City Center
06:09PM 37.8533 -91.4886 46° Northeast 131 151 11,200  Climbing Kansas City Center
06:10PM 37.8761 -91.4564 48° Northeast 126 145 11,100 -60 Descending Kansas City Center
06:11PM 37.9025 -91.4244 44° Northeast 130 150 11,100  Level Kansas City Center
06:12PM 37.9294 -91.3903 45° Northeast 132 152 11,100  Level Kansas City Center
06:13PM 37.9517 -91.3531 53° Northeast 134 154 11,100 -60 Level Kansas City Center
06:14PM 37.9803 -91.3133 48° Northeast 130 150 11,000 -60 Descending Kansas City Center
06:15PM 38.0050 -91.2806 46° Northeast 129 148 11,000 60 Level Kansas City Center
06:16PM 38.0297 -91.2472 47° Northeast 129 148 11,200  Climbing Kansas City Center
06:17PM 38.0553 -91.2133 46° Northeast 130 150 11,100 -60 Descending Kansas City Center
06:18PM 38.0794 -91.1786 49° Northeast 131 151 11,100  Level Kansas City Center
06:19PM 38.1053 -91.1461 45° Northeast 130 150 11,100  Level Kansas City Center
06:20PM 38.1311 -91.1106 47° Northeast 133 153 11,100  Level Kansas City Center
06:21PM 38.1592 -91.0656 52° Northeast 135 155 11,100  Level Kansas City Center
06:22PM 38.1842 -91.0328 46° Northeast 134 154 11,100  Level Kansas City Center
06:23PM 38.2125 -91.0000 42° Northeast 136 157 11,100  Level Kansas City Center
06:24PM 38.2378 -90.9633 49° Northeast 138 159 11,100  Level Kansas City Center
06:25PM 38.2675 -90.9364 35° Northeast 134 154 11,100 -120 Level Kansas City Center
06:26PM 38.2964 -90.9036 42° Northeast 137 158 10,900 -360 Descending Kansas City Center
06:27PM 38.3319 -90.8533 48° Northeast 155 178 10,400 -540 Descending Kansas City Center
06:28PM 38.3700 -90.8200 34° Northeast 162 186 9,900 -480 Descending Kansas City Center
06:29PM 38.4056 -90.7825 40° Northeast 167 192 9,400 -540 Descending Kansas City Center
06:31PM 38.4361 -90.7353 50° Northeast 171 197 8,800 -600 Descending Kansas City Center
06:32PM 38.4697 -90.6925 45° Northeast 171 197 8,300 -420 Descending Kansas City Center
06:33PM 38.5053 -90.6606 35° Northeast 160 184 8,000 -120 Descending Kansas City Center
06:34PM 38.5422 -90.6181 42° Northeast 151 174 8,100  Climbing Kansas City Center
06:35PM 38.5658 -90.5778 53° Northeast 152 175 8,100  Level Kansas City Center
06:36PM 38.5747 -90.5239 78° East 159 183 8,100  Level Kansas City Center
06:37PM 38.5997 -90.4819 53° Northeast 149 171 8,100  Level Kansas City Center
06:38PM 38.6250 -90.4450 49° Northeast 142 163 8,100  Level Kansas City Center
06:39PM 38.6572 -90.3975 49° Northeast 146 168 8,100 -180 Level Kansas City Center
06:40PM 38.6806 -90.3564 54° Northeast 147 169 7,800 -420 Descending Kansas City Center
06:41PM 38.7092 -90.3147 49° Northeast 156 180 7,300 -480 Descending Kansas City Center
06:42PM 38.7442 -90.2750 42° Northeast 167 192 6,900 -660 Descending Kansas City Center
06:43PM 38.7847 -90.2289 42° Northeast 166 191 6,000 -900 Descending Kansas City Center
06:44PM 38.8186 -90.1856 45° Northeast 167 192 5,100 -900 Descending Kansas City Center
06:45PM 38.8364 -90.1317 67° East 165 190 4,200 -840 Descending Kansas City Center
06:46PM 38.8414 -90.0692 84° East 173 199 3,400 -720 Descending Kansas City Center
06:47PM 38.8292 -90.0136 106° East 167 192 2,800 -660 Descending Kansas City Center
06:48PM 38.8522 -89.9839 45° Northeast 147 169 2,100 -840 Descending Kansas City Center
06:49PM 38.8781 -90.0072 325° Northwest 123 142 1,100 -720 Descending Kansas City Center
06:50PM 38.8892 -90.0367 296° West 101 116 700 -420 Descending Kansas City Center
06:52PM 38.8833 -90.0333 49° Northeast  Level FlightAware Approximate